sensor_id;sensor_type;location;lat;lon;timestamp;P1;durP1;ratioP1;P2;durP2;ratioP2
23078;SDS011;11707;50.830;4.364;2023-03-31T00:01:02;18.25;;;3.22;;
23078;SDS011;11707;50.830;4.364;2023-03-31T00:03:28;15.15;;;2.95;;
23078;SDS011;11707;50.830;4.364;2023-03-31T00:05:58;16.70;;;3.13;;
23078;SDS011;11707;50.830;4.364;2023-03-31T00:08:28;16.52;;;3.63;;
23078;SDS011;11707;50.830;4.364;2023-03-31T00:10:59;17.80;;;3.58;;
23078;SDS011;11707;50.830;4.364;2023-03-31T00:13:26;19.70;;;3.78;;
23078;SDS011;11707;50.830;4.364;2023-03-31T00:15:57;15.40;;;3.30;;
23078;SDS011;11707;50.830;4.364;2023-03-31T00:18:25;15.93;;;3.63;;
23078;SDS011;11707;50.830;4.364;2023-03-31T00:20:51;6.18;;;2.08;;
23078;SDS011;11707;50.830;4.364;2023-03-31T00:23:18;13.52;;;2.25;;
23078;SDS011;11707;50.830;4.364;2023-03-31T00:25:52;13.73;;;3.00;;
23078;SDS011;11707;50.830;4.364;2023-03-31T00:28:23;14.60;;;3.33;;
23078;SDS011;11707;50.830;4.364;2023-03-31T00:30:49;13.85;;;2.65;;
23078;SDS011;11707;50.830;4.364;2023-03-31T00:33:15;11.85;;;2.53;;
23078;SDS011;11707;50.830;4.364;2023-03-31T00:35:41;15.00;;;3.05;;
23078;SDS011;11707;50.830;4.364;2023-03-31T00:38:07;17.80;;;2.95;;
23078;SDS011;11707;50.830;4.364;2023-03-31T00:40:33;11.27;;;3.67;;
23078;SDS011;11707;50.830;4.364;2023-03-31T00:43:08;21.08;;;3.05;;
23078;SDS011;11707;50.830;4.364;2023-03-31T00:45:49;26.10;;;4.25;;
23078;SDS011;11707;50.830;4.364;2023-03-31T00:48:19;18.98;;;4.00;;
23078;SDS011;11707;50.830;4.364;2023-03-31T00:50:50;19.73;;;4.57;;
23078;SDS011;11707;50.830;4.364;2023-03-31T00:53:23;15.13;;;3.47;;
23078;SDS011;11707;50.830;4.364;2023-03-31T00:55:56;22.67;;;4.20;;
23078;SDS011;11707;50.830;4.364;2023-03-31T00:58:26;9.05;;;2.28;;
23078;SDS011;11707;50.830;4.364;2023-03-31T01:00:52;20.92;;;3.40;;
23078;SDS011;11707;50.830;4.364;2023-03-31T01:03:24;17.48;;;3.38;;
23078;SDS011;11707;50.830;4.364;2023-03-31T01:08:18;13.05;;;2.80;;
23078;SDS011;11707;50.830;4.364;2023-03-31T01:10:49;14.13;;;2.95;;
23078;SDS011;11707;50.830;4.364;2023-03-31T01:13:21;16.53;;;2.87;;
23078;SDS011;11707;50.830;4.364;2023-03-31T01:15:47;12.50;;;3.25;;
23078;SDS011;11707;50.830;4.364;2023-03-31T01:18:14;16.40;;;3.42;;
23078;SDS011;11707;50.830;4.364;2023-03-31T01:23:57;17.65;;;3.63;;
23078;SDS011;11707;50.830;4.364;2023-03-31T01:35:28;9.88;;;2.60;;
23078;SDS011;11707;50.830;4.364;2023-03-31T01:41:07;15.00;;;3.08;;
23078;SDS011;11707;50.830;4.364;2023-03-31T01:44:05;10.65;;;2.03;;
23078;SDS011;11707;50.830;4.364;2023-03-31T01:55:08;7.40;;;1.88;;
23078;SDS011;11707;50.830;4.364;2023-03-31T01:57:47;11.60;;;2.08;;
23078;SDS011;11707;50.830;4.364;2023-03-31T02:00:18;12.27;;;2.33;;
23078;SDS011;11707;50.830;4.364;2023-03-31T02:05:37;10.52;;;2.10;;
23078;SDS011;11707;50.830;4.364;2023-03-31T02:08:42;8.18;;;2.20;;
23078;SDS011;11707;50.830;4.364;2023-03-31T02:11:06;11.20;;;2.38;;
23078;SDS011;11707;50.830;4.364;2023-03-31T02:13:32;9.52;;;2.17;;
23078;SDS011;11707;50.830;4.364;2023-03-31T02:16:03;9.32;;;1.60;;
23078;SDS011;11707;50.830;4.364;2023-03-31T02:18:32;8.88;;;1.80;;
23078;SDS011;11707;50.830;4.364;2023-03-31T02:21:02;10.75;;;2.03;;
23078;SDS011;11707;50.830;4.364;2023-03-31T02:23:31;10.35;;;1.83;;
23078;SDS011;11707;50.830;4.364;2023-03-31T02:26:00;11.68;;;2.42;;
23078;SDS011;11707;50.830;4.364;2023-03-31T02:28:40;7.40;;;1.90;;
23078;SDS011;11707;50.830;4.364;2023-03-31T02:31:10;9.77;;;1.70;;
23078;SDS011;11707;50.830;4.364;2023-03-31T02:33:46;8.05;;;1.35;;
23078;SDS011;11707;50.830;4.364;2023-03-31T02:36:13;9.18;;;2.25;;
23078;SDS011;11707;50.830;4.364;2023-03-31T02:38:41;8.57;;;2.10;;
23078;SDS011;11707;50.830;4.364;2023-03-31T02:41:10;11.70;;;2.28;;
23078;SDS011;11707;50.830;4.364;2023-03-31T02:43:36;10.63;;;1.85;;
23078;SDS011;11707;50.830;4.364;2023-03-31T02:46:04;9.60;;;1.80;;
23078;SDS011;11707;50.830;4.364;2023-03-31T02:48:37;10.70;;;2.30;;
23078;SDS011;11707;50.830;4.364;2023-03-31T02:59:00;8.32;;;1.70;;
23078;SDS011;11707;50.830;4.364;2023-03-31T03:07:22;13.50;;;2.65;;
23078;SDS011;11707;50.830;4.364;2023-03-31T03:18:44;7.93;;;1.80;;
23078;SDS011;11707;50.830;4.364;2023-03-31T03:21:30;11.77;;;1.75;;
23078;SDS011;11707;50.830;4.364;2023-03-31T03:23:58;12.40;;;2.30;;
23078;SDS011;11707;50.830;4.364;2023-03-31T03:26:28;14.45;;;3.47;;
23078;SDS011;11707;50.830;4.364;2023-03-31T03:28:54;16.95;;;3.72;;
23078;SDS011;11707;50.830;4.364;2023-03-31T03:31:21;14.38;;;2.80;;
23078;SDS011;11707;50.830;4.364;2023-03-31T03:33:50;12.90;;;2.38;;
23078;SDS011;11707;50.830;4.364;2023-03-31T03:36:16;11.95;;;1.75;;
23078;SDS011;11707;50.830;4.364;2023-03-31T03:38:43;14.52;;;2.58;;
23078;SDS011;11707;50.830;4.364;2023-03-31T03:41:08;7.53;;;1.55;;
23078;SDS011;11707;50.830;4.364;2023-03-31T03:43:36;5.63;;;0.82;;
23078;SDS011;11707;50.830;4.364;2023-03-31T03:46:02;5.70;;;0.90;;
23078;SDS011;11707;50.830;4.364;2023-03-31T03:48:29;6.40;;;0.82;;
23078;SDS011;11707;50.830;4.364;2023-03-31T03:50:54;3.83;;;0.85;;
23078;SDS011;11707;50.830;4.364;2023-03-31T03:53:23;3.38;;;0.50;;
23078;SDS011;11707;50.830;4.364;2023-03-31T03:55:49;4.63;;;0.75;;
23078;SDS011;11707;50.830;4.364;2023-03-31T03:58:19;3.15;;;0.70;;
23078;SDS011;11707;50.830;4.364;2023-03-31T04:00:45;1.15;;;0.40;;
23078;SDS011;11707;50.830;4.364;2023-03-31T04:03:11;6.38;;;0.70;;
23078;SDS011;11707;50.830;4.364;2023-03-31T04:05:40;2.08;;;0.65;;
23078;SDS011;11707;50.830;4.364;2023-03-31T04:08:06;2.75;;;0.52;;
23078;SDS011;11707;50.830;4.364;2023-03-31T04:10:34;2.67;;;0.57;;
23078;SDS011;11707;50.830;4.364;2023-03-31T04:13:00;2.53;;;0.73;;
23078;SDS011;11707;50.830;4.364;2023-03-31T04:15:26;3.58;;;0.60;;
23078;SDS011;11707;50.830;4.364;2023-03-31T04:17:51;2.47;;;0.68;;
23078;SDS011;11707;50.830;4.364;2023-03-31T04:20:18;6.03;;;1.42;;
23078;SDS011;11707;50.830;4.364;2023-03-31T04:22:51;11.75;;;2.70;;
23078;SDS011;11707;50.830;4.364;2023-03-31T04:25:18;7.43;;;2.10;;
23078;SDS011;11707;50.830;4.364;2023-03-31T04:27:46;8.45;;;1.20;;
23078;SDS011;11707;50.830;4.364;2023-03-31T04:30:23;10.20;;;1.88;;
23078;SDS011;11707;50.830;4.364;2023-03-31T04:32:55;9.70;;;2.15;;
23078;SDS011;11707;50.830;4.364;2023-03-31T04:35:25;6.18;;;1.73;;
23078;SDS011;11707;50.830;4.364;2023-03-31T04:38:06;10.40;;;2.30;;
23078;SDS011;11707;50.830;4.364;2023-03-31T04:40:34;11.85;;;1.98;;
23078;SDS011;11707;50.830;4.364;2023-03-31T04:43:00;9.43;;;2.13;;
23078;SDS011;11707;50.830;4.364;2023-03-31T04:45:26;11.75;;;2.83;;
23078;SDS011;11707;50.830;4.364;2023-03-31T04:47:52;15.95;;;3.28;;
23078;SDS011;11707;50.830;4.364;2023-03-31T04:50:17;15.65;;;2.30;;
23078;SDS011;11707;50.830;4.364;2023-03-31T04:52:45;13.95;;;2.67;;
23078;SDS011;11707;50.830;4.364;2023-03-31T04:55:11;11.80;;;3.17;;
23078;SDS011;11707;50.830;4.364;2023-03-31T04:57:36;15.60;;;3.28;;
23078;SDS011;11707;50.830;4.364;2023-03-31T05:00:03;13.13;;;2.58;;
23078;SDS011;11707;50.830;4.364;2023-03-31T05:02:32;10.13;;;3.40;;
23078;SDS011;11707;50.830;4.364;2023-03-31T05:04:58;18.80;;;2.85;;
23078;SDS011;11707;50.830;4.364;2023-03-31T05:07:23;17.63;;;2.90;;
23078;SDS011;11707;50.830;4.364;2023-03-31T05:09:52;12.35;;;3.13;;
23078;SDS011;11707;50.830;4.364;2023-03-31T05:12:17;14.90;;;3.03;;
23078;SDS011;11707;50.830;4.364;2023-03-31T05:14:43;15.32;;;2.33;;
23078;SDS011;11707;50.830;4.364;2023-03-31T05:17:09;18.50;;;3.03;;
23078;SDS011;11707;50.830;4.364;2023-03-31T05:19:35;16.55;;;2.83;;
23078;SDS011;11707;50.830;4.364;2023-03-31T05:22:03;14.20;;;3.03;;
23078;SDS011;11707;50.830;4.364;2023-03-31T05:24:29;17.75;;;3.33;;
23078;SDS011;11707;50.830;4.364;2023-03-31T05:26:57;11.25;;;2.85;;
23078;SDS011;11707;50.830;4.364;2023-03-31T05:29:25;11.48;;;2.78;;
23078;SDS011;11707;50.830;4.364;2023-03-31T05:31:51;8.52;;;2.30;;
23078;SDS011;11707;50.830;4.364;2023-03-31T05:34:19;17.95;;;2.72;;
23078;SDS011;11707;50.830;4.364;2023-03-31T05:36:45;17.40;;;3.35;;
23078;SDS011;11707;50.830;4.364;2023-03-31T05:39:19;10.43;;;3.30;;
23078;SDS011;11707;50.830;4.364;2023-03-31T05:41:45;15.82;;;3.30;;
23078;SDS011;11707;50.830;4.364;2023-03-31T05:44:13;10.43;;;2.85;;
23078;SDS011;11707;50.830;4.364;2023-03-31T05:46:39;15.00;;;2.75;;
23078;SDS011;11707;50.830;4.364;2023-03-31T05:49:06;16.75;;;2.78;;
23078;SDS011;11707;50.830;4.364;2023-03-31T05:51:32;12.02;;;2.88;;
23078;SDS011;11707;50.830;4.364;2023-03-31T05:54:00;8.52;;;2.63;;
23078;SDS011;11707;50.830;4.364;2023-03-31T05:56:26;21.17;;;3.55;;
23078;SDS011;11707;50.830;4.364;2023-03-31T05:58:52;8.55;;;2.88;;
23078;SDS011;11707;50.830;4.364;2023-03-31T06:01:18;15.82;;;3.47;;
23078;SDS011;11707;50.830;4.364;2023-03-31T06:03:47;13.90;;;2.83;;
23078;SDS011;11707;50.830;4.364;2023-03-31T06:06:13;13.48;;;2.33;;
23078;SDS011;11707;50.830;4.364;2023-03-31T06:08:41;16.83;;;3.35;;
23078;SDS011;11707;50.830;4.364;2023-03-31T06:11:09;20.10;;;2.92;;
23078;SDS011;11707;50.830;4.364;2023-03-31T06:13:36;13.05;;;3.95;;
23078;SDS011;11707;50.830;4.364;2023-03-31T06:16:03;15.23;;;3.65;;
23078;SDS011;11707;50.830;4.364;2023-03-31T06:18:30;13.98;;;2.97;;
23078;SDS011;11707;50.830;4.364;2023-03-31T06:20:58;15.43;;;3.20;;
23078;SDS011;11707;50.830;4.364;2023-03-31T06:23:24;16.63;;;4.07;;
23078;SDS011;11707;50.830;4.364;2023-03-31T06:25:51;14.43;;;4.15;;
23078;SDS011;11707;50.830;4.364;2023-03-31T06:28:17;17.58;;;3.40;;
23078;SDS011;11707;50.830;4.364;2023-03-31T06:30:43;16.65;;;3.97;;
23078;SDS011;11707;50.830;4.364;2023-03-31T06:33:09;10.25;;;2.88;;
23078;SDS011;11707;50.830;4.364;2023-03-31T06:35:38;19.60;;;4.22;;
23078;SDS011;11707;50.830;4.364;2023-03-31T06:38:05;15.80;;;3.63;;
23078;SDS011;11707;50.830;4.364;2023-03-31T06:40:31;17.10;;;3.28;;
23078;SDS011;11707;50.830;4.364;2023-03-31T06:42:58;13.88;;;2.42;;
23078;SDS011;11707;50.830;4.364;2023-03-31T06:45:24;13.75;;;2.80;;
23078;SDS011;11707;50.830;4.364;2023-03-31T06:47:49;16.98;;;3.45;;
23078;SDS011;11707;50.830;4.364;2023-03-31T06:50:16;14.13;;;3.80;;
23078;SDS011;11707;50.830;4.364;2023-03-31T06:52:42;12.93;;;4.15;;
23078;SDS011;11707;50.830;4.364;2023-03-31T06:55:07;13.77;;;3.00;;
23078;SDS011;11707;50.830;4.364;2023-03-31T06:57:33;17.60;;;3.22;;
23078;SDS011;11707;50.830;4.364;2023-03-31T07:00:00;21.80;;;4.00;;
23078;SDS011;11707;50.830;4.364;2023-03-31T07:02:27;10.85;;;2.92;;
23078;SDS011;11707;50.830;4.364;2023-03-31T07:04:55;18.73;;;4.28;;
23078;SDS011;11707;50.830;4.364;2023-03-31T07:07:21;12.07;;;4.18;;
23078;SDS011;11707;50.830;4.364;2023-03-31T07:09:49;12.02;;;3.10;;
23078;SDS011;11707;50.830;4.364;2023-03-31T07:12:15;15.43;;;3.10;;
23078;SDS011;11707;50.830;4.364;2023-03-31T07:14:40;15.48;;;3.50;;
23078;SDS011;11707;50.830;4.364;2023-03-31T07:17:06;12.25;;;3.10;;
23078;SDS011;11707;50.830;4.364;2023-03-31T07:19:32;16.85;;;3.15;;
23078;SDS011;11707;50.830;4.364;2023-03-31T07:22:01;19.38;;;4.57;;
23078;SDS011;11707;50.830;4.364;2023-03-31T07:24:27;11.63;;;3.38;;
23078;SDS011;11707;50.830;4.364;2023-03-31T07:26:54;20.30;;;3.78;;
23078;SDS011;11707;50.830;4.364;2023-03-31T07:29:22;17.88;;;4.03;;
23078;SDS011;11707;50.830;4.364;2023-03-31T07:31:48;17.80;;;3.03;;
23078;SDS011;11707;50.830;4.364;2023-03-31T07:34:14;19.73;;;3.88;;
23078;SDS011;11707;50.830;4.364;2023-03-31T07:36:40;19.75;;;3.92;;
23078;SDS011;11707;50.830;4.364;2023-03-31T07:39:06;16.30;;;3.45;;
23078;SDS011;11707;50.830;4.364;2023-03-31T07:41:32;10.40;;;2.30;;
23078;SDS011;11707;50.830;4.364;2023-03-31T07:43:58;14.30;;;3.72;;
23078;SDS011;11707;50.830;4.364;2023-03-31T07:46:25;24.60;;;4.63;;
23078;SDS011;11707;50.830;4.364;2023-03-31T07:48:52;21.52;;;5.22;;
23078;SDS011;11707;50.830;4.364;2023-03-31T07:51:19;15.30;;;3.67;;
23078;SDS011;11707;50.830;4.364;2023-03-31T07:53:47;23.30;;;5.07;;
23078;SDS011;11707;50.830;4.364;2023-03-31T07:56:20;22.02;;;4.82;;
23078;SDS011;11707;50.830;4.364;2023-03-31T07:58:47;22.33;;;4.90;;
23078;SDS011;11707;50.830;4.364;2023-03-31T08:01:14;13.40;;;3.92;;
23078;SDS011;11707;50.830;4.364;2023-03-31T08:03:43;16.58;;;4.45;;
23078;SDS011;11707;50.830;4.364;2023-03-31T08:06:11;22.52;;;4.22;;
23078;SDS011;11707;50.830;4.364;2023-03-31T08:08:41;16.42;;;5.07;;
23078;SDS011;11707;50.830;4.364;2023-03-31T08:11:10;17.80;;;4.60;;
23078;SDS011;11707;50.830;4.364;2023-03-31T08:13:35;20.13;;;3.92;;
23078;SDS011;11707;50.830;4.364;2023-03-31T08:16:01;19.15;;;5.15;;
23078;SDS011;11707;50.830;4.364;2023-03-31T08:18:28;15.55;;;4.30;;
23078;SDS011;11707;50.830;4.364;2023-03-31T08:20:54;19.98;;;3.22;;
23078;SDS011;11707;50.830;4.364;2023-03-31T08:23:20;27.45;;;4.35;;
23078;SDS011;11707;50.830;4.364;2023-03-31T08:25:45;19.55;;;3.40;;
23078;SDS011;11707;50.830;4.364;2023-03-31T08:28:16;14.65;;;3.70;;
23078;SDS011;11707;50.830;4.364;2023-03-31T08:30:45;15.52;;;3.08;;
23078;SDS011;11707;50.830;4.364;2023-03-31T08:33:11;20.58;;;4.10;;
23078;SDS011;11707;50.830;4.364;2023-03-31T08:35:36;16.98;;;4.22;;
23078;SDS011;11707;50.830;4.364;2023-03-31T08:38:02;22.48;;;4.15;;
23078;SDS011;11707;50.830;4.364;2023-03-31T08:40:29;16.75;;;3.50;;
23078;SDS011;11707;50.830;4.364;2023-03-31T08:43:03;15.40;;;3.42;;
23078;SDS011;11707;50.830;4.364;2023-03-31T08:45:36;18.17;;;3.92;;
23078;SDS011;11707;50.830;4.364;2023-03-31T08:50:53;16.88;;;3.50;;
23078;SDS011;11707;50.830;4.364;2023-03-31T08:53:31;18.63;;;4.40;;
23078;SDS011;11707;50.830;4.364;2023-03-31T08:56:01;11.00;;;3.83;;
23078;SDS011;11707;50.830;4.364;2023-03-31T08:58:43;18.75;;;3.75;;
23078;SDS011;11707;50.830;4.364;2023-03-31T09:11:57;12.40;;;3.45;;
23078;SDS011;11707;50.830;4.364;2023-03-31T09:14:43;22.80;;;3.42;;
23078;SDS011;11707;50.830;4.364;2023-03-31T09:17:21;17.48;;;3.75;;
23078;SDS011;11707;50.830;4.364;2023-03-31T09:19:52;23.08;;;5.00;;
23078;SDS011;11707;50.830;4.364;2023-03-31T09:22:38;16.30;;;3.88;;
23078;SDS011;11707;50.830;4.364;2023-03-31T09:25:14;21.85;;;4.90;;
23078;SDS011;11707;50.830;4.364;2023-03-31T09:27:46;20.80;;;3.83;;
23078;SDS011;11707;50.830;4.364;2023-03-31T09:30:18;18.95;;;5.38;;
23078;SDS011;11707;50.830;4.364;2023-03-31T09:35:39;23.60;;;3.45;;
23078;SDS011;11707;50.830;4.364;2023-03-31T09:38:05;26.33;;;5.65;;
23078;SDS011;11707;50.830;4.364;2023-03-31T09:40:31;19.52;;;4.18;;
23078;SDS011;11707;50.830;4.364;2023-03-31T09:42:59;16.83;;;4.50;;
23078;SDS011;11707;50.830;4.364;2023-03-31T09:45:27;16.23;;;3.67;;
23078;SDS011;11707;50.830;4.364;2023-03-31T09:47:55;24.65;;;4.55;;
23078;SDS011;11707;50.830;4.364;2023-03-31T09:50:25;20.98;;;4.85;;
23078;SDS011;11707;50.830;4.364;2023-03-31T09:52:56;23.10;;;4.10;;
23078;SDS011;11707;50.830;4.364;2023-03-31T09:55:29;17.63;;;4.93;;
23078;SDS011;11707;50.830;4.364;2023-03-31T09:57:59;24.83;;;4.22;;
23078;SDS011;11707;50.830;4.364;2023-03-31T10:00:28;19.02;;;3.85;;
23078;SDS011;11707;50.830;4.364;2023-03-31T10:02:54;27.27;;;4.35;;
23078;SDS011;11707;50.830;4.364;2023-03-31T10:07:50;22.60;;;4.75;;
23078;SDS011;11707;50.830;4.364;2023-03-31T10:10:35;22.55;;;4.47;;
23078;SDS011;11707;50.830;4.364;2023-03-31T10:13:00;21.40;;;5.38;;
23078;SDS011;11707;50.830;4.364;2023-03-31T10:15:36;27.95;;;4.93;;
23078;SDS011;11707;50.830;4.364;2023-03-31T10:18:02;17.85;;;3.97;;
23078;SDS011;11707;50.830;4.364;2023-03-31T10:23:14;20.45;;;4.85;;
23078;SDS011;11707;50.830;4.364;2023-03-31T10:25:57;17.98;;;3.97;;
23078;SDS011;11707;50.830;4.364;2023-03-31T10:28:24;19.30;;;4.85;;
23078;SDS011;11707;50.830;4.364;2023-03-31T10:30:51;18.77;;;4.13;;
23078;SDS011;11707;50.830;4.364;2023-03-31T10:33:28;18.58;;;4.32;;
23078;SDS011;11707;50.830;4.364;2023-03-31T10:35:59;23.30;;;4.28;;
23078;SDS011;11707;50.830;4.364;2023-03-31T10:41:00;25.65;;;4.32;;
23078;SDS011;11707;50.830;4.364;2023-03-31T10:43:27;18.90;;;4.28;;
23078;SDS011;11707;50.830;4.364;2023-03-31T10:45:58;20.80;;;3.63;;
23078;SDS011;11707;50.830;4.364;2023-03-31T10:48:25;17.05;;;3.60;;
23078;SDS011;11707;50.830;4.364;2023-03-31T10:50:51;13.85;;;3.08;;
23078;SDS011;11707;50.830;4.364;2023-03-31T10:53:25;17.67;;;4.85;;
23078;SDS011;11707;50.830;4.364;2023-03-31T10:55:54;18.63;;;4.03;;
23078;SDS011;11707;50.830;4.364;2023-03-31T11:01:13;16.23;;;3.70;;
23078;SDS011;11707;50.830;4.364;2023-03-31T11:17:48;23.55;;;5.30;;
23078;SDS011;11707;50.830;4.364;2023-03-31T11:20:40;20.17;;;4.28;;
23078;SDS011;11707;50.830;4.364;2023-03-31T11:28:58;17.42;;;4.38;;
23078;SDS011;11707;50.830;4.364;2023-03-31T11:37:46;15.23;;;3.47;;
23078;SDS011;11707;50.830;4.364;2023-03-31T11:43:00;11.85;;;3.20;;
23078;SDS011;11707;50.830;4.364;2023-03-31T11:45:34;12.45;;;3.15;;
23078;SDS011;11707;50.830;4.364;2023-03-31T11:48:30;15.23;;;2.65;;
23078;SDS011;11707;50.830;4.364;2023-03-31T11:51:26;16.17;;;4.00;;
23078;SDS011;11707;50.830;4.364;2023-03-31T11:53:57;13.77;;;2.83;;
23078;SDS011;11707;50.830;4.364;2023-03-31T11:56:32;11.20;;;3.67;;
23078;SDS011;11707;50.830;4.364;2023-03-31T11:59:01;12.80;;;3.78;;
23078;SDS011;11707;50.830;4.364;2023-03-31T12:01:29;16.17;;;3.22;;
23078;SDS011;11707;50.830;4.364;2023-03-31T12:04:05;16.25;;;3.35;;
23078;SDS011;11707;50.830;4.364;2023-03-31T12:06:39;16.63;;;3.70;;
23078;SDS011;11707;50.830;4.364;2023-03-31T12:11:49;13.02;;;2.50;;
23078;SDS011;11707;50.830;4.364;2023-03-31T12:14:41;15.65;;;3.47;;
23078;SDS011;11707;50.830;4.364;2023-03-31T12:17:33;14.85;;;3.38;;
23078;SDS011;11707;50.830;4.364;2023-03-31T12:20:02;12.43;;;3.33;;
23078;SDS011;11707;50.830;4.364;2023-03-31T12:22:42;16.73;;;3.43;;
23078;SDS011;11707;50.830;4.364;2023-03-31T12:25:16;15.63;;;3.03;;
23078;SDS011;11707;50.830;4.364;2023-03-31T12:27:50;12.52;;;3.30;;
23078;SDS011;11707;50.830;4.364;2023-03-31T12:32:54;20.25;;;3.15;;
23078;SDS011;11707;50.830;4.364;2023-03-31T12:41:14;10.65;;;3.28;;
23078;SDS011;11707;50.830;4.364;2023-03-31T12:52:11;23.00;;;7.90;;
23078;SDS011;11707;50.830;4.364;2023-03-31T12:57:23;12.23;;;2.78;;
23078;SDS011;11707;50.830;4.364;2023-03-31T13:02:38;7.43;;;1.52;;
23078;SDS011;11707;50.830;4.364;2023-03-31T13:08:02;6.72;;;1.27;;
23078;SDS011;11707;50.830;4.364;2023-03-31T13:10:29;3.78;;;1.17;;
23078;SDS011;11707;50.830;4.364;2023-03-31T13:13:10;5.43;;;0.98;;
23078;SDS011;11707;50.830;4.364;2023-03-31T13:15:38;3.88;;;1.13;;
23078;SDS011;11707;50.830;4.364;2023-03-31T13:18:05;5.05;;;0.85;;
23078;SDS011;11707;50.830;4.364;2023-03-31T13:20:33;4.25;;;0.70;;
23078;SDS011;11707;50.830;4.364;2023-03-31T13:23:03;5.60;;;1.50;;
23078;SDS011;11707;50.830;4.364;2023-03-31T13:25:44;4.95;;;1.38;;
23078;SDS011;11707;50.830;4.364;2023-03-31T13:28:23;5.40;;;1.10;;
23078;SDS011;11707;50.830;4.364;2023-03-31T13:30:58;1.65;;;0.43;;
23078;SDS011;11707;50.830;4.364;2023-03-31T13:47:44;1.48;;;0.63;;
23078;SDS011;11707;50.830;4.364;2023-03-31T14:07:31;4.85;;;2.10;;
23078;SDS011;11707;50.830;4.364;2023-03-31T14:10:02;3.60;;;0.88;;
23078;SDS011;11707;50.830;4.364;2023-03-31T14:12:31;2.28;;;0.77;;
23078;SDS011;11707;50.830;4.364;2023-03-31T14:14:57;2.65;;;0.90;;
23078;SDS011;11707;50.830;4.364;2023-03-31T14:17:30;1.05;;;0.60;;
23078;SDS011;11707;50.830;4.364;2023-03-31T14:20:17;2.13;;;0.50;;
23078;SDS011;11707;50.830;4.364;2023-03-31T14:31:22;4.05;;;0.55;;
23078;SDS011;11707;50.830;4.364;2023-03-31T14:39:11;3.33;;;1.13;;
23078;SDS011;11707;50.830;4.364;2023-03-31T14:41:38;2.47;;;0.70;;
23078;SDS011;11707;50.830;4.364;2023-03-31T14:44:06;1.85;;;0.88;;
23078;SDS011;11707;50.830;4.364;2023-03-31T14:46:37;3.10;;;0.85;;
23078;SDS011;11707;50.830;4.364;2023-03-31T14:49:19;4.18;;;0.68;;
23078;SDS011;11707;50.830;4.364;2023-03-31T14:51:53;1.88;;;0.60;;
23078;SDS011;11707;50.830;4.364;2023-03-31T14:54:23;5.90;;;0.60;;
23078;SDS011;11707;50.830;4.364;2023-03-31T14:56:52;3.65;;;0.70;;
23078;SDS011;11707;50.830;4.364;2023-03-31T14:59:21;4.10;;;0.80;;
23078;SDS011;11707;50.830;4.364;2023-03-31T15:01:51;3.30;;;0.75;;
23078;SDS011;11707;50.830;4.364;2023-03-31T15:04:22;2.53;;;0.70;;
23078;SDS011;11707;50.830;4.364;2023-03-31T15:06:49;3.33;;;0.65;;
23078;SDS011;11707;50.830;4.364;2023-03-31T15:09:21;4.15;;;0.93;;
23078;SDS011;11707;50.830;4.364;2023-03-31T15:12:03;3.80;;;0.95;;
23078;SDS011;11707;50.830;4.364;2023-03-31T15:14:33;2.25;;;1.13;;
23078;SDS011;11707;50.830;4.364;2023-03-31T15:17:14;2.65;;;0.50;;
23078;SDS011;11707;50.830;4.364;2023-03-31T15:19:45;3.88;;;0.60;;
23078;SDS011;11707;50.830;4.364;2023-03-31T15:22:13;3.95;;;0.77;;
23078;SDS011;11707;50.830;4.364;2023-03-31T15:24:42;1.65;;;0.70;;
23078;SDS011;11707;50.830;4.364;2023-03-31T15:27:14;2.60;;;0.82;;
23078;SDS011;11707;50.830;4.364;2023-03-31T15:29:55;4.07;;;1.00;;
23078;SDS011;11707;50.830;4.364;2023-03-31T15:32:24;1.77;;;0.85;;
23078;SDS011;11707;50.830;4.364;2023-03-31T15:34:51;2.60;;;0.73;;
23078;SDS011;11707;50.830;4.364;2023-03-31T15:37:25;5.45;;;0.98;;
23078;SDS011;11707;50.830;4.364;2023-03-31T15:39:56;6.32;;;1.08;;
23078;SDS011;11707;50.830;4.364;2023-03-31T15:42:25;2.10;;;0.70;;
23078;SDS011;11707;50.830;4.364;2023-03-31T15:44:53;4.53;;;1.00;;
23078;SDS011;11707;50.830;4.364;2023-03-31T15:47:21;5.65;;;0.95;;
23078;SDS011;11707;50.830;4.364;2023-03-31T15:52:31;5.80;;;1.73;;
23078;SDS011;11707;50.830;4.364;2023-03-31T15:54:59;4.47;;;1.20;;
23078;SDS011;11707;50.830;4.364;2023-03-31T15:57:30;3.20;;;1.23;;
23078;SDS011;11707;50.830;4.364;2023-03-31T15:59:57;3.00;;;1.08;;
23078;SDS011;11707;50.830;4.364;2023-03-31T16:02:25;5.75;;;1.10;;
23078;SDS011;11707;50.830;4.364;2023-03-31T16:05:01;4.40;;;1.60;;
23078;SDS011;11707;50.830;4.364;2023-03-31T16:07:32;6.45;;;1.30;;
23078;SDS011;11707;50.830;4.364;2023-03-31T16:09:59;4.25;;;0.93;;
23078;SDS011;11707;50.830;4.364;2023-03-31T16:12:49;4.90;;;1.77;;
23078;SDS011;11707;50.830;4.364;2023-03-31T16:15:34;6.35;;;1.35;;
23078;SDS011;11707;50.830;4.364;2023-03-31T16:18:46;6.95;;;1.80;;
23078;SDS011;11707;50.830;4.364;2023-03-31T16:21:03;8.43;;;1.65;;
23078;SDS011;11707;50.830;4.364;2023-03-31T16:23:33;9.02;;;2.00;;
23078;SDS011;11707;50.830;4.364;2023-03-31T16:26:02;4.78;;;1.30;;
23078;SDS011;11707;50.830;4.364;2023-03-31T16:28:30;7.78;;;1.60;;
23078;SDS011;11707;50.830;4.364;2023-03-31T16:30:58;14.52;;;2.40;;
23078;SDS011;11707;50.830;4.364;2023-03-31T16:33:26;9.23;;;2.15;;
23078;SDS011;11707;50.830;4.364;2023-03-31T16:36:15;9.50;;;2.33;;
23078;SDS011;11707;50.830;4.364;2023-03-31T16:38:41;5.22;;;1.60;;
23078;SDS011;11707;50.830;4.364;2023-03-31T16:41:07;9.90;;;2.13;;
23078;SDS011;11707;50.830;4.364;2023-03-31T16:43:38;5.15;;;1.52;;
23078;SDS011;11707;50.830;4.364;2023-03-31T16:46:04;9.80;;;1.48;;
23078;SDS011;11707;50.830;4.364;2023-03-31T16:48:30;8.13;;;1.85;;
23078;SDS011;11707;50.830;4.364;2023-03-31T16:50:59;6.18;;;1.83;;
23078;SDS011;11707;50.830;4.364;2023-03-31T16:53:26;7.18;;;1.88;;
23078;SDS011;11707;50.830;4.364;2023-03-31T16:55:54;12.02;;;2.55;;
23078;SDS011;11707;50.830;4.364;2023-03-31T16:58:20;10.88;;;2.67;;
23078;SDS011;11707;50.830;4.364;2023-03-31T17:00:48;7.00;;;1.40;;
23078;SDS011;11707;50.830;4.364;2023-03-31T17:03:15;11.98;;;2.10;;
23078;SDS011;11707;50.830;4.364;2023-03-31T17:05:41;11.20;;;2.22;;
23078;SDS011;11707;50.830;4.364;2023-03-31T17:08:09;8.13;;;1.45;;
23078;SDS011;11707;50.830;4.364;2023-03-31T17:10:36;5.60;;;2.42;;
23078;SDS011;11707;50.830;4.364;2023-03-31T17:13:03;6.03;;;1.42;;
23078;SDS011;11707;50.830;4.364;2023-03-31T17:15:30;5.95;;;1.60;;
23078;SDS011;11707;50.830;4.364;2023-03-31T17:17:56;6.68;;;1.40;;
23078;SDS011;11707;50.830;4.364;2023-03-31T17:20:25;6.00;;;1.80;;
23078;SDS011;11707;50.830;4.364;2023-03-31T17:22:51;6.68;;;2.20;;
23078;SDS011;11707;50.830;4.364;2023-03-31T17:25:20;7.45;;;3.13;;
23078;SDS011;11707;50.830;4.364;2023-03-31T17:27:46;8.93;;;1.67;;
23078;SDS011;11707;50.830;4.364;2023-03-31T17:30:12;5.60;;;1.63;;
23078;SDS011;11707;50.830;4.364;2023-03-31T17:32:39;9.80;;;2.00;;
23078;SDS011;11707;50.830;4.364;2023-03-31T17:35:08;14.35;;;3.67;;
23078;SDS011;11707;50.830;4.364;2023-03-31T17:37:35;16.02;;;2.97;;
23078;SDS011;11707;50.830;4.364;2023-03-31T17:40:01;8.98;;;2.15;;
23078;SDS011;11707;50.830;4.364;2023-03-31T17:42:28;16.15;;;2.72;;
23078;SDS011;11707;50.830;4.364;2023-03-31T17:44:55;17.52;;;2.88;;
23078;SDS011;11707;50.830;4.364;2023-03-31T17:47:22;12.07;;;2.75;;
23078;SDS011;11707;50.830;4.364;2023-03-31T17:49:51;15.38;;;3.42;;
23078;SDS011;11707;50.830;4.364;2023-03-31T17:52:17;19.40;;;4.75;;
23078;SDS011;11707;50.830;4.364;2023-03-31T17:54:43;20.42;;;3.00;;
23078;SDS011;11707;50.830;4.364;2023-03-31T17:57:08;16.83;;;3.80;;